sensor_id;sensor_type;location;lat;lon;timestamp;pressure;altitude;pressure_sealevel;temperature;humidity
82171;BME280;71755;48.038;14.346;2023-07-29T00:00:54;97040.09;;;17.18;78.38
82171;BME280;71755;48.038;14.346;2023-07-29T00:03:21;97045.91;;;17.12;78.35
82171;BME280;71755;48.038;14.346;2023-07-29T00:05:47;97049.59;;;17.16;78.87
82171;BME280;71755;48.038;14.346;2023-07-29T00:08:14;97044.59;;;17.23;78.77
82171;BME280;71755;48.038;14.346;2023-07-29T00:10:39;97046.59;;;17.31;78.74
82171;BME280;71755;48.038;14.346;2023-07-29T00:13:06;97040.59;;;17.34;78.72
82171;BME280;71755;48.038;14.346;2023-07-29T00:15:32;97041.28;;;17.40;78.69
82171;BME280;71755;48.038;14.346;2023-07-29T00:17:58;97029.56;;;17.44;78.82
82171;BME280;71755;48.038;14.346;2023-07-29T00:20:25;97037.88;;;17.34;78.84
82171;BME280;71755;48.038;14.346;2023-07-29T00:22:51;97044.00;;;17.26;79.55
82171;BME280;71755;48.038;14.346;2023-07-29T00:25:21;97043.09;;;17.17;79.80
82171;BME280;71755;48.038;14.346;2023-07-29T00:27:47;97047.19;;;17.28;79.55
82171;BME280;71755;48.038;14.346;2023-07-29T00:30:14;97042.59;;;17.29;79.52
82171;BME280;71755;48.038;14.346;2023-07-29T00:32:40;97046.47;;;16.95;80.39
82171;BME280;71755;48.038;14.346;2023-07-29T00:35:06;97039.56;;;17.03;80.45
82171;BME280;71755;48.038;14.346;2023-07-29T00:37:32;97049.25;;;17.04;80.09
82171;BME280;71755;48.038;14.346;2023-07-29T00:39:58;97045.91;;;17.12;79.85
82171;BME280;71755;48.038;14.346;2023-07-29T00:42:24;97053.56;;;17.05;80.28
82171;BME280;71755;48.038;14.346;2023-07-29T00:44:51;97051.34;;;17.07;79.79
82171;BME280;71755;48.038;14.346;2023-07-29T00:47:17;97039.59;;;17.16;79.61
82171;BME280;71755;48.038;14.346;2023-07-29T00:49:45;97033.59;;;17.19;79.71
82171;BME280;71755;48.038;14.346;2023-07-29T00:52:12;97036.00;;;17.21;79.82
82171;BME280;71755;48.038;14.346;2023-07-29T00:54:42;97037.59;;;17.22;79.86
82171;BME280;71755;48.038;14.346;2023-07-29T00:57:10;97030.50;;;17.26;79.87
82171;BME280;71755;48.038;14.346;2023-07-29T00:59:39;97030.78;;;17.38;79.38
82171;BME280;71755;48.038;14.346;2023-07-29T01:02:07;97023.19;;;17.40;79.06
82171;BME280;71755;48.038;14.346;2023-07-29T01:04:33;97036.78;;;17.35;79.29
82171;BME280;71755;48.038;14.346;2023-07-29T01:07:30;97031.78;;;17.42;79.17
82171;BME280;71755;48.038;14.346;2023-07-29T01:10:22;97032.38;;;17.39;78.62
82171;BME280;71755;48.038;14.346;2023-07-29T01:13:10;97038.59;;;17.26;79.13
82171;BME280;71755;48.038;14.346;2023-07-29T01:15:54;97038.00;;;17.29;79.35
82171;BME280;71755;48.038;14.346;2023-07-29T01:18:26;97035.00;;;17.31;79.40
82171;BME280;71755;48.038;14.346;2023-07-29T01:20:58;97039.97;;;17.37;78.86
82171;BME280;71755;48.038;14.346;2023-07-29T01:23:33;97045.00;;;17.30;78.99
82171;BME280;71755;48.038;14.346;2023-07-29T01:25:59;97039.78;;;17.34;79.10
82171;BME280;71755;48.038;14.346;2023-07-29T01:28:26;97046.28;;;17.33;79.29
82171;BME280;71755;48.038;14.346;2023-07-29T01:31:00;97048.59;;;17.39;79.01
82171;BME280;71755;48.038;14.346;2023-07-29T01:33:35;97050.47;;;17.39;78.45
82171;BME280;71755;48.038;14.346;2023-07-29T01:36:11;97058.47;;;17.44;78.47
82171;BME280;71755;48.038;14.346;2023-07-29T01:38:41;97051.69;;;17.46;78.50
82171;BME280;71755;48.038;14.346;2023-07-29T01:41:09;97056.38;;;17.41;79.05
82171;BME280;71755;48.038;14.346;2023-07-29T01:43:36;97057.38;;;17.45;79.16
82171;BME280;71755;48.038;14.346;2023-07-29T01:46:10;97053.81;;;17.49;78.66
82171;BME280;71755;48.038;14.346;2023-07-29T01:48:37;97052.19;;;17.48;78.11
82171;BME280;71755;48.038;14.346;2023-07-29T01:51:03;97064.09;;;17.47;78.31
82171;BME280;71755;48.038;14.346;2023-07-29T01:53:30;97065.78;;;17.43;78.86
82171;BME280;71755;48.038;14.346;2023-07-29T01:55:56;97052.38;;;17.38;78.88
82171;BME280;71755;48.038;14.346;2023-07-29T01:58:23;97055.38;;;17.37;78.83
82171;BME280;71755;48.038;14.346;2023-07-29T02:00:49;97048.88;;;17.24;78.92
82171;BME280;71755;48.038;14.346;2023-07-29T02:03:15;97055.59;;;17.27;78.80
82171;BME280;71755;48.038;14.346;2023-07-29T02:05:41;97060.50;;;17.11;79.60
82171;BME280;71755;48.038;14.346;2023-07-29T02:08:10;97050.75;;;16.96;80.28
82171;BME280;71755;48.038;14.346;2023-07-29T02:10:36;97049.16;;;17.09;79.61
82171;BME280;71755;48.038;14.346;2023-07-29T02:13:03;97050.78;;;17.10;79.51
82171;BME280;71755;48.038;14.346;2023-07-29T02:15:30;97054.00;;;17.12;79.07
82171;BME280;71755;48.038;14.346;2023-07-29T02:17:55;97048.09;;;17.10;79.19
82171;BME280;71755;48.038;14.346;2023-07-29T02:20:21;97045.97;;;17.07;79.71
82171;BME280;71755;48.038;14.346;2023-07-29T02:22:48;97055.09;;;17.11;79.61
82171;BME280;71755;48.038;14.346;2023-07-29T02:25:14;97049.38;;;17.12;79.08
82171;BME280;71755;48.038;14.346;2023-07-29T02:27:40;97046.41;;;17.14;79.03
82171;BME280;71755;48.038;14.346;2023-07-29T02:30:07;97051.34;;;17.07;79.81
82171;BME280;71755;48.038;14.346;2023-07-29T02:32:35;97050.50;;;17.11;79.65
82171;BME280;71755;48.038;14.346;2023-07-29T02:35:01;97047.00;;;17.11;79.90
82171;BME280;71755;48.038;14.346;2023-07-29T02:37:27;97043.19;;;17.12;79.42
82171;BME280;71755;48.038;14.346;2023-07-29T02:39:53;97043.56;;;16.92;80.22
82171;BME280;71755;48.038;14.346;2023-07-29T02:42:19;97045.88;;;16.66;81.11
82171;BME280;71755;48.038;14.346;2023-07-29T02:44:45;97052.22;;;16.56;81.77
82171;BME280;71755;48.038;14.346;2023-07-29T02:47:10;97050.03;;;16.58;81.83
82171;BME280;71755;48.038;14.346;2023-07-29T02:49:36;97051.22;;;16.52;81.82
82171;BME280;71755;48.038;14.346;2023-07-29T02:52:02;97051.19;;;16.38;82.19
82171;BME280;71755;48.038;14.346;2023-07-29T02:54:29;97053.38;;;16.36;82.63
82171;BME280;71755;48.038;14.346;2023-07-29T02:56:55;97054.38;;;16.40;82.78
82171;BME280;71755;48.038;14.346;2023-07-29T02:59:20;97055.03;;;16.32;82.80
82171;BME280;71755;48.038;14.346;2023-07-29T03:01:46;97054.59;;;16.44;82.72
82171;BME280;71755;48.038;14.346;2023-07-29T03:04:12;97055.44;;;16.58;82.29
82171;BME280;71755;48.038;14.346;2023-07-29T03:06:41;97049.44;;;16.61;81.65
82171;BME280;71755;48.038;14.346;2023-07-29T03:09:07;97052.09;;;16.66;81.47
82171;BME280;71755;48.038;14.346;2023-07-29T03:11:33;97043.25;;;16.61;80.93
82171;BME280;71755;48.038;14.346;2023-07-29T03:13:59;97043.81;;;16.44;81.51
82171;BME280;71755;48.038;14.346;2023-07-29T03:16:26;97046.50;;;16.44;81.84
82171;BME280;71755;48.038;14.346;2023-07-29T03:18:52;97048.00;;;16.50;81.54
82171;BME280;71755;48.038;14.346;2023-07-29T03:21:18;97048.81;;;16.50;81.28
82171;BME280;71755;48.038;14.346;2023-07-29T03:23:43;97044.19;;;16.37;81.26
82171;BME280;71755;48.038;14.346;2023-07-29T03:26:09;97048.19;;;16.40;81.38
82171;BME280;71755;48.038;14.346;2023-07-29T03:28:40;97047.81;;;16.46;81.21
82171;BME280;71755;48.038;14.346;2023-07-29T03:31:06;97052.81;;;16.53;81.15
82171;BME280;71755;48.038;14.346;2023-07-29T03:33:33;97059.91;;;16.49;80.61
82171;BME280;71755;48.038;14.346;2023-07-29T03:35:59;97056.78;;;16.42;80.46
82171;BME280;71755;48.038;14.346;2023-07-29T03:38:25;97054.59;;;16.44;80.08
82171;BME280;71755;48.038;14.346;2023-07-29T03:40:51;97053.41;;;16.50;80.32
82171;BME280;71755;48.038;14.346;2023-07-29T03:43:19;97056.03;;;16.55;80.43
82171;BME280;71755;48.038;14.346;2023-07-29T03:45:45;97059.81;;;16.54;80.51
82171;BME280;71755;48.038;14.346;2023-07-29T03:48:11;97060.09;;;16.52;79.98
82171;BME280;71755;48.038;14.346;2023-07-29T03:50:37;97070.34;;;16.37;80.63
82171;BME280;71755;48.038;14.346;2023-07-29T03:53:03;97070.63;;;16.16;81.82
82171;BME280;71755;48.038;14.346;2023-07-29T03:55:30;97078.66;;;16.03;82.78
82171;BME280;71755;48.038;14.346;2023-07-29T03:57:57;97077.91;;;15.97;83.46
82171;BME280;71755;48.038;14.346;2023-07-29T04:00:24;97084.00;;;15.84;84.08
82171;BME280;71755;48.038;14.346;2023-07-29T04:02:50;97092.28;;;15.69;84.74
82171;BME280;71755;48.038;14.346;2023-07-29T04:05:16;97084.28;;;15.63;85.29
82171;BME280;71755;48.038;14.346;2023-07-29T04:07:42;97086.72;;;15.60;85.65
82171;BME280;71755;48.038;14.346;2023-07-29T04:10:09;97090.47;;;15.64;85.51
82171;BME280;71755;48.038;14.346;2023-07-29T04:12:35;97087.41;;;15.71;85.48
82171;BME280;71755;48.038;14.346;2023-07-29T04:15:01;97092.75;;;15.76;84.86
82171;BME280;71755;48.038;14.346;2023-07-29T04:17:28;97091.56;;;15.82;84.85
82171;BME280;71755;48.038;14.346;2023-07-29T04:19:53;97102.88;;;15.84;84.44
82171;BME280;71755;48.038;14.346;2023-07-29T04:22:19;97105.34;;;15.80;84.79
82171;BME280;71755;48.038;14.346;2023-07-29T04:24:46;97115.53;;;15.83;84.86
82171;BME280;71755;48.038;14.346;2023-07-29T04:27:13;97115.59;;;15.78;84.76
82171;BME280;71755;48.038;14.346;2023-07-29T04:29:39;97115.69;;;15.92;84.70
82171;BME280;71755;48.038;14.346;2023-07-29T04:32:05;97120.59;;;16.09;84.43
82171;BME280;71755;48.038;14.346;2023-07-29T04:34:31;97123.06;;;16.24;83.97
82171;BME280;71755;48.038;14.346;2023-07-29T04:36:58;97116.97;;;16.37;83.74
82171;BME280;71755;48.038;14.346;2023-07-29T04:39:24;97119.28;;;16.44;83.50
82171;BME280;71755;48.038;14.346;2023-07-29T04:41:50;97123.22;;;16.51;82.92
82171;BME280;71755;48.038;14.346;2023-07-29T04:44:17;97125.63;;;16.53;82.73
82171;BME280;71755;48.038;14.346;2023-07-29T04:46:43;97119.13;;;16.54;82.24
82171;BME280;71755;48.038;14.346;2023-07-29T04:49:08;97120.53;;;16.51;82.26
82171;BME280;71755;48.038;14.346;2023-07-29T04:51:34;97126.63;;;16.57;81.73
82171;BME280;71755;48.038;14.346;2023-07-29T04:54:00;97126.03;;;16.60;81.48
82171;BME280;71755;48.038;14.346;2023-07-29T04:56:26;97126.03;;;16.60;81.17
82171;BME280;71755;48.038;14.346;2023-07-29T04:58:52;97117.38;;;16.63;81.17
82171;BME280;71755;48.038;14.346;2023-07-29T05:01:19;97116.56;;;16.63;80.87
82171;BME280;71755;48.038;14.346;2023-07-29T05:03:45;97123.25;;;16.65;81.05
82171;BME280;71755;48.038;14.346;2023-07-29T05:06:11;97117.06;;;16.65;81.32
82171;BME280;71755;48.038;14.346;2023-07-29T05:08:37;97116.81;;;16.66;81.18
82171;BME280;71755;48.038;14.346;2023-07-29T05:11:03;97120.00;;;16.68;80.95
82171;BME280;71755;48.038;14.346;2023-07-29T05:13:29;97116.72;;;16.71;81.34
82171;BME280;71755;48.038;14.346;2023-07-29T05:15:55;97105.94;;;16.52;82.03
82171;BME280;71755;48.038;14.346;2023-07-29T05:18:21;97111.41;;;16.29;83.29
82171;BME280;71755;48.038;14.346;2023-07-29T05:20:49;97108.63;;;16.34;84.05
82171;BME280;71755;48.038;14.346;2023-07-29T05:23:15;97107.03;;;16.33;83.62
82171;BME280;71755;48.038;14.346;2023-07-29T05:25:41;97104.63;;;16.31;84.12
82171;BME280;71755;48.038;14.346;2023-07-29T05:28:07;97095.16;;;16.34;84.05
82171;BME280;71755;48.038;14.346;2023-07-29T05:30:33;97095.03;;;16.44;84.35
82171;BME280;71755;48.038;14.346;2023-07-29T05:33:03;97096.56;;;16.50;84.18
82171;BME280;71755;48.038;14.346;2023-07-29T05:35:30;97096.59;;;16.64;84.12
82171;BME280;71755;48.038;14.346;2023-07-29T05:37:56;97093.03;;;16.68;83.82
82171;BME280;71755;48.038;14.346;2023-07-29T05:40:22;97098.28;;;16.78;83.91
82171;BME280;71755;48.038;14.346;2023-07-29T05:42:48;97095.50;;;16.83;84.00
82171;BME280;71755;48.038;14.346;2023-07-29T05:45:15;97097.59;;;16.86;83.74
82171;BME280;71755;48.038;14.346;2023-07-29T05:47:41;97097.13;;;16.98;84.00
82171;BME280;71755;48.038;14.346;2023-07-29T05:50:08;97091.03;;;17.06;83.72
82171;BME280;71755;48.038;14.346;2023-07-29T05:52:34;97088.03;;;17.08;83.49
82171;BME280;71755;48.038;14.346;2023-07-29T05:55:00;97097.06;;;17.17;83.28
82171;BME280;71755;48.038;14.346;2023-07-29T05:57:27;97092.28;;;17.28;83.17
82171;BME280;71755;48.038;14.346;2023-07-29T05:59:53;97089.69;;;17.36;83.29
82171;BME280;71755;48.038;14.346;2023-07-29T06:02:19;97093.69;;;17.39;83.28
82171;BME280;71755;48.038;14.346;2023-07-29T06:04:45;97093.59;;;17.44;82.85
82171;BME280;71755;48.038;14.346;2023-07-29T06:07:11;97093.22;;;17.50;82.15
82171;BME280;71755;48.038;14.346;2023-07-29T06:09:37;97096.31;;;17.58;81.42
82171;BME280;71755;48.038;14.346;2023-07-29T06:12:04;97091.28;;;17.65;80.79
82171;BME280;71755;48.038;14.346;2023-07-29T06:14:30;97102.13;;;17.78;80.51
82171;BME280;71755;48.038;14.346;2023-07-29T06:16:55;97089.81;;;17.86;78.96
82171;BME280;71755;48.038;14.346;2023-07-29T06:19:21;97090.41;;;17.97;78.59
82171;BME280;71755;48.038;14.346;2023-07-29T06:21:48;97083.84;;;18.11;78.07
82171;BME280;71755;48.038;14.346;2023-07-29T06:24:14;97083.41;;;18.18;75.08
82171;BME280;71755;48.038;14.346;2023-07-29T06:26:40;97077.00;;;18.28;74.34
82171;BME280;71755;48.038;14.346;2023-07-29T06:29:05;97079.97;;;18.40;72.62
82171;BME280;71755;48.038;14.346;2023-07-29T06:31:31;97083.22;;;18.51;72.37
82171;BME280;71755;48.038;14.346;2023-07-29T06:33:58;97075.19;;;18.59;74.64
82171;BME280;71755;48.038;14.346;2023-07-29T06:36:24;97074.16;;;18.69;73.55
82171;BME280;71755;48.038;14.346;2023-07-29T06:38:50;97071.81;;;18.76;73.10
82171;BME280;71755;48.038;14.346;2023-07-29T06:41:16;97069.66;;;18.87;72.77
82171;BME280;71755;48.038;14.346;2023-07-29T06:43:42;97058.59;;;18.97;72.23
82171;BME280;71755;48.038;14.346;2023-07-29T06:46:08;97059.72;;;19.04;71.78
82171;BME280;71755;48.038;14.346;2023-07-29T06:48:35;97060.25;;;19.15;72.25
82171;BME280;71755;48.038;14.346;2023-07-29T06:51:00;97058.38;;;19.24;72.39
82171;BME280;71755;48.038;14.346;2023-07-29T06:53:28;97060.19;;;19.38;70.81
82171;BME280;71755;48.038;14.346;2023-07-29T06:55:54;97056.72;;;19.46;71.61
82171;BME280;71755;48.038;14.346;2023-07-29T06:58:20;97059.47;;;19.54;71.33
82171;BME280;71755;48.038;14.346;2023-07-29T07:00:46;97059.66;;;19.58;71.35
82171;BME280;71755;48.038;14.346;2023-07-29T07:03:12;97066.38;;;19.69;68.31
82171;BME280;71755;48.038;14.346;2023-07-29T07:05:39;97057.47;;;19.77;68.92
82171;BME280;71755;48.038;14.346;2023-07-29T07:08:05;97049.34;;;19.77;69.63
82171;BME280;71755;48.038;14.346;2023-07-29T07:10:32;97055.25;;;19.88;67.86
82171;BME280;71755;48.038;14.346;2023-07-29T07:12:59;97047.94;;;19.97;67.86
82171;BME280;71755;48.038;14.346;2023-07-29T07:15:25;97043.81;;;20.08;68.71
82171;BME280;71755;48.038;14.346;2023-07-29T07:17:52;97048.13;;;20.18;68.71
82171;BME280;71755;48.038;14.346;2023-07-29T07:20:18;97048.44;;;20.25;68.72
82171;BME280;71755;48.038;14.346;2023-07-29T07:22:44;97035.53;;;20.22;68.12
82171;BME280;71755;48.038;14.346;2023-07-29T07:25:10;97037.44;;;20.30;68.43
82171;BME280;71755;48.038;14.346;2023-07-29T07:27:36;97025.16;;;20.41;66.67
82171;BME280;71755;48.038;14.346;2023-07-29T07:30:03;97027.88;;;20.41;67.93
82171;BME280;71755;48.038;14.346;2023-07-29T07:32:28;97022.31;;;20.46;68.24
82171;BME280;71755;48.038;14.346;2023-07-29T07:34:55;97025.44;;;20.66;67.59
82171;BME280;71755;48.038;14.346;2023-07-29T07:37:21;97028.13;;;20.74;67.27
82171;BME280;71755;48.038;14.346;2023-07-29T07:39:47;97017.09;;;20.88;67.11
82171;BME280;71755;48.038;14.346;2023-07-29T07:42:13;97023.91;;;21.03;66.41
82171;BME280;71755;48.038;14.346;2023-07-29T07:44:39;97016.09;;;21.01;65.42
82171;BME280;71755;48.038;14.346;2023-07-29T07:47:05;97019.41;;;21.24;65.32
82171;BME280;71755;48.038;14.346;2023-07-29T07:49:31;97014.59;;;21.21;63.14
82171;BME280;71755;48.038;14.346;2023-07-29T07:51:57;97016.31;;;21.34;64.45
82171;BME280;71755;48.038;14.346;2023-07-29T07:54:24;97015.38;;;21.30;65.16
82171;BME280;71755;48.038;14.346;2023-07-29T07:56:50;97007.78;;;21.06;63.53
82171;BME280;71755;48.038;14.346;2023-07-29T07:59:16;97005.81;;;21.15;62.00
82171;BME280;71755;48.038;14.346;2023-07-29T08:01:42;97001.59;;;21.35;61.70
82171;BME280;71755;48.038;14.346;2023-07-29T08:04:08;97005.19;;;21.57;61.54
82171;BME280;71755;48.038;14.346;2023-07-29T08:06:34;97002.41;;;21.65;61.79
82171;BME280;71755;48.038;14.346;2023-07-29T08:09:01;97008.50;;;21.62;63.29
82171;BME280;71755;48.038;14.346;2023-07-29T08:11:27;97011.78;;;21.47;64.68
82171;BME280;71755;48.038;14.346;2023-07-29T08:13:53;97001.34;;;21.58;64.00
82171;BME280;71755;48.038;14.346;2023-07-29T08:16:19;96990.28;;;21.83;63.40
82171;BME280;71755;48.038;14.346;2023-07-29T08:18:45;96980.81;;;22.10;63.77
82171;BME280;71755;48.038;14.346;2023-07-29T08:21:10;96991.75;;;22.23;62.46
82171;BME280;71755;48.038;14.346;2023-07-29T08:23:37;96979.59;;;22.41;63.54
82171;BME280;71755;48.038;14.346;2023-07-29T08:26:04;96986.41;;;22.47;59.45
82171;BME280;71755;48.038;14.346;2023-07-29T08:28:36;96980.53;;;22.24;60.34
82171;BME280;71755;48.038;14.346;2023-07-29T08:31:02;96977.81;;;22.24;62.13
82171;BME280;71755;48.038;14.346;2023-07-29T08:33:29;96978.66;;;22.04;62.09
82171;BME280;71755;48.038;14.346;2023-07-29T08:35:55;96987.03;;;21.90;62.66
82171;BME280;71755;48.038;14.346;2023-07-29T08:38:21;96981.59;;;21.90;61.06
82171;BME280;71755;48.038;14.346;2023-07-29T08:41:24;96976.19;;;22.11;61.05
82171;BME280;71755;48.038;14.346;2023-07-29T08:44:08;96975.41;;;22.43;61.84
82171;BME280;71755;48.038;14.346;2023-07-29T08:46:35;96970.34;;;22.54;63.14
82171;BME280;71755;48.038;14.346;2023-07-29T08:49:01;96968.44;;;22.67;61.69
82171;BME280;71755;48.038;14.346;2023-07-29T08:51:29;96966.53;;;22.80;61.54
82171;BME280;71755;48.038;14.346;2023-07-29T08:53:58;96975.13;;;23.15;60.81
82171;BME280;71755;48.038;14.346;2023-07-29T08:56:25;96962.50;;;23.34;59.47
82171;BME280;71755;48.038;14.346;2023-07-29T08:58:52;96966.94;;;23.51;58.63
82171;BME280;71755;48.038;14.346;2023-07-29T09:01:18;96970.09;;;23.78;58.46
82171;BME280;71755;48.038;14.346;2023-07-29T09:03:44;96965.19;;;23.95;58.44
82171;BME280;71755;48.038;14.346;2023-07-29T09:06:11;96958.25;;;23.98;58.86
82171;BME280;71755;48.038;14.346;2023-07-29T09:08:38;96968.91;;;24.03;56.16
82171;BME280;71755;48.038;14.346;2023-07-29T09:11:06;96964.19;;;23.88;56.81
82171;BME280;71755;48.038;14.346;2023-07-29T09:13:32;96966.72;;;23.68;56.83
82171;BME280;71755;48.038;14.346;2023-07-29T09:15:58;96970.53;;;23.92;58.23
82171;BME280;71755;48.038;14.346;2023-07-29T09:18:26;96956.84;;;24.44;57.88
82171;BME280;71755;48.038;14.346;2023-07-29T09:20:53;96960.50;;;24.64;56.62
82171;BME280;71755;48.038;14.346;2023-07-29T09:23:19;96953.09;;;24.80;56.07
82171;BME280;71755;48.038;14.346;2023-07-29T09:25:48;96954.13;;;25.04;56.84
82171;BME280;71755;48.038;14.346;2023-07-29T09:28:15;96960.09;;;25.25;56.68
82171;BME280;71755;48.038;14.346;2023-07-29T09:30:44;96957.44;;;25.44;54.91
82171;BME280;71755;48.038;14.346;2023-07-29T09:33:11;96958.91;;;25.58;52.53
82171;BME280;71755;48.038;14.346;2023-07-29T09:35:38;96954.09;;;25.35;53.34
82171;BME280;71755;48.038;14.346;2023-07-29T09:38:07;96956.84;;;25.35;54.40
82171;BME280;71755;48.038;14.346;2023-07-29T09:40:38;96958.16;;;24.94;52.92
82171;BME280;71755;48.038;14.346;2023-07-29T09:43:05;96967.38;;;24.89;53.94
82171;BME280;71755;48.038;14.346;2023-07-29T09:45:33;96967.47;;;24.77;53.99
82171;BME280;71755;48.038;14.346;2023-07-29T09:47:59;96969.94;;;24.67;55.70
82171;BME280;71755;48.038;14.346;2023-07-29T09:50:26;96972.94;;;24.34;55.25
82171;BME280;71755;48.038;14.346;2023-07-29T09:52:54;96977.09;;;24.43;54.86
82171;BME280;71755;48.038;14.346;2023-07-29T09:55:23;96979.91;;;24.47;56.13
82171;BME280;71755;48.038;14.346;2023-07-29T09:57:57;96996.59;;;24.29;56.42
82171;BME280;71755;48.038;14.346;2023-07-29T10:00:30;97013.28;;;23.88;56.94
82171;BME280;71755;48.038;14.346;2023-07-29T10:02:57;97017.19;;;23.62;56.59
82171;BME280;71755;48.038;14.346;2023-07-29T10:05:28;97028.19;;;23.42;59.70
82171;BME280;71755;48.038;14.346;2023-07-29T10:07:55;97035.09;;;23.39;60.20
82171;BME280;71755;48.038;14.346;2023-07-29T10:10:22;97037.13;;;23.30;60.86
82171;BME280;71755;48.038;14.346;2023-07-29T10:12:49;97034.84;;;23.07;61.55
82171;BME280;71755;48.038;14.346;2023-07-29T10:15:15;97033.56;;;22.93;63.92
82171;BME280;71755;48.038;14.346;2023-07-29T10:17:41;97036.31;;;22.72;62.36
82171;BME280;71755;48.038;14.346;2023-07-29T10:20:09;97025.44;;;22.72;62.17
82171;BME280;71755;48.038;14.346;2023-07-29T10:25:09;97026.81;;;22.78;61.95
82171;BME280;71755;48.038;14.346;2023-07-29T10:28:02;97029.75;;;22.73;60.75
82171;BME280;71755;48.038;14.346;2023-07-29T10:30:30;97031.53;;;22.69;59.89
82171;BME280;71755;48.038;14.346;2023-07-29T10:33:03;97036.31;;;22.72;59.88
82171;BME280;71755;48.038;14.346;2023-07-29T10:35:32;97037.91;;;22.73;58.81
82171;BME280;71755;48.038;14.346;2023-07-29T10:38:00;97032.91;;;22.75;57.64
82171;BME280;71755;48.038;14.346;2023-07-29T10:40:44;97032.34;;;22.69;58.91
82171;BME280;71755;48.038;14.346;2023-07-29T10:43:12;97027.47;;;22.75;58.09
82171;BME280;71755;48.038;14.346;2023-07-29T10:45:41;97032.47;;;22.73;58.29
82171;BME280;71755;48.038;14.346;2023-07-29T10:48:12;97035.63;;;22.75;59.23
82171;BME280;71755;48.038;14.346;2023-07-29T10:50:38;97025.31;;;22.68;59.07
82171;BME280;71755;48.038;14.346;2023-07-29T10:53:04;97029.00;;;22.64;60.34
82171;BME280;71755;48.038;14.346;2023-07-29T10:55:35;97031.59;;;22.60;58.28
82171;BME280;71755;48.038;14.346;2023-07-29T10:58:07;97033.47;;;22.68;61.50
82171;BME280;71755;48.038;14.346;2023-07-29T11:00:33;97032.69;;;22.68;59.22
82171;BME280;71755;48.038;14.346;2023-07-29T11:03:04;97040.50;;;22.69;58.80
82171;BME280;71755;48.038;14.346;2023-07-29T11:08:30;97030.34;;;22.58;59.46
82171;BME280;71755;48.038;14.346;2023-07-29T11:13:30;97022.47;;;22.44;59.93
82171;BME280;71755;48.038;14.346;2023-07-29T11:15:56;97018.25;;;22.34;60.13
82171;BME280;71755;48.038;14.346;2023-07-29T11:18:34;97025.63;;;22.34;61.57
82171;BME280;71755;48.038;14.346;2023-07-29T11:21:02;97028.22;;;22.30;62.04
82171;BME280;71755;48.038;14.346;2023-07-29T11:23:37;97036.09;;;22.23;62.04
82171;BME280;71755;48.038;14.346;2023-07-29T11:26:04;97048.63;;;22.15;62.98
82171;BME280;71755;48.038;14.346;2023-07-29T11:28:30;97053.63;;;22.13;63.04
82171;BME280;71755;48.038;14.346;2023-07-29T11:30:57;97050.09;;;22.13;63.29
82171;BME280;71755;48.038;14.346;2023-07-29T11:33:25;97046.59;;;22.12;63.35
82171;BME280;71755;48.038;14.346;2023-07-29T11:35:52;97031.25;;;22.08;64.62
82171;BME280;71755;48.038;14.346;2023-07-29T11:38:19;97026.19;;;21.98;63.88
82171;BME280;71755;48.038;14.346;2023-07-29T11:40:59;97024.97;;;21.87;64.75
82171;BME280;71755;48.038;14.346;2023-07-29T11:43:27;97016.06;;;21.77;62.73
82171;BME280;71755;48.038;14.346;2023-07-29T11:45:53;96999.22;;;21.63;64.16
82171;BME280;71755;48.038;14.346;2023-07-29T11:48:33;96990.72;;;21.65;66.53
82171;BME280;71755;48.038;14.346;2023-07-29T11:51:00;96996.97;;;21.65;67.72
82171;BME280;71755;48.038;14.346;2023-07-29T11:53:29;97000.47;;;21.66;68.02
82171;BME280;71755;48.038;14.346;2023-07-29T11:55:57;96998.78;;;22.03;68.75
82171;BME280;71755;48.038;14.346;2023-07-29T11:58:23;96979.84;;;22.48;64.89
82171;BME280;71755;48.038;14.346;2023-07-29T12:00:51;96976.00;;;22.94;63.99
82171;BME280;71755;48.038;14.346;2023-07-29T12:03:17;96973.28;;;22.82;61.40
82171;BME280;71755;48.038;14.346;2023-07-29T12:05:44;96969.47;;;23.07;62.83
82171;BME280;71755;48.038;14.346;2023-07-29T12:08:10;96975.09;;;22.90;60.38
82171;BME280;71755;48.038;14.346;2023-07-29T12:10:37;96973.06;;;22.99;62.03
82171;BME280;71755;48.038;14.346;2023-07-29T12:13:03;96971.63;;;22.69;58.18
82171;BME280;71755;48.038;14.346;2023-07-29T12:15:29;96973.28;;;22.49;60.66
82171;BME280;71755;48.038;14.346;2023-07-29T12:17:57;96968.41;;;22.88;58.96
82171;BME280;71755;48.038;14.346;2023-07-29T12:20:23;96957.63;;;23.28;60.38
82171;BME280;71755;48.038;14.346;2023-07-29T12:22:58;96954.25;;;23.55;60.64
82171;BME280;71755;48.038;14.346;2023-07-29T12:25:27;96952.84;;;23.37;60.31
82171;BME280;71755;48.038;14.346;2023-07-29T12:27:53;96949.41;;;23.77;61.72
82171;BME280;71755;48.038;14.346;2023-07-29T12:30:23;96946.13;;;23.83;61.57
82171;BME280;71755;48.038;14.346;2023-07-29T12:32:48;96937.09;;;24.35;57.62
82171;BME280;71755;48.038;14.346;2023-07-29T12:35:14;96936.59;;;24.17;56.77
82171;BME280;71755;48.038;14.346;2023-07-29T12:37:41;96925.78;;;24.80;55.93
82171;BME280;71755;48.038;14.346;2023-07-29T12:40:30;96924.56;;;24.93;54.23
82171;BME280;71755;48.038;14.346;2023-07-29T12:42:56;96926.53;;;25.09;52.26
82171;BME280;71755;48.038;14.346;2023-07-29T12:45:22;96925.22;;;25.03;50.74
82171;BME280;71755;48.038;14.346;2023-07-29T12:47:52;96924.66;;;25.13;50.95
82171;BME280;71755;48.038;14.346;2023-07-29T12:50:18;96907.00;;;25.61;51.45
82171;BME280;71755;48.038;14.346;2023-07-29T12:52:44;96914.34;;;25.57;50.67
82171;BME280;71755;48.038;14.346;2023-07-29T12:55:10;96917.59;;;25.28;50.77
82171;BME280;71755;48.038;14.346;2023-07-29T12:57:41;96902.75;;;25.64;48.34
82171;BME280;71755;48.038;14.346;2023-07-29T13:00:09;96891.88;;;26.02;50.64